sensor_id;sensor_type;location;lat;lon;timestamp;P1;durP1;ratioP1;P2;durP2;ratioP2
40367;SDS011;26075;43.320;21.920;2023-08-20T00:03:12;8.35;;;5.30;;
40367;SDS011;26075;43.320;21.920;2023-08-20T00:14:16;7.45;;;4.85;;
40367;SDS011;26075;43.320;21.920;2023-08-20T00:24:47;6.88;;;4.10;;
40367;SDS011;26075;43.320;21.920;2023-08-20T00:29:48;6.75;;;4.47;;
40367;SDS011;26075;43.320;21.920;2023-08-20T00:40:39;7.50;;;5.13;;
40367;SDS011;26075;43.320;21.920;2023-08-20T00:57:22;7.63;;;5.43;;
40367;SDS011;26075;43.320;21.920;2023-08-20T01:02:23;7.18;;;5.15;;
40367;SDS011;26075;43.320;21.920;2023-08-20T01:07:46;6.28;;;4.60;;
40367;SDS011;26075;43.320;21.920;2023-08-20T01:18:43;7.30;;;4.35;;
40367;SDS011;26075;43.320;21.920;2023-08-20T01:23:57;7.43;;;4.93;;
40367;SDS011;26075;43.320;21.920;2023-08-20T01:34:39;9.13;;;5.47;;
40367;SDS011;26075;43.320;21.920;2023-08-20T01:45:36;9.65;;;6.10;;
40367;SDS011;26075;43.320;21.920;2023-08-20T01:50:37;8.43;;;6.20;;
40367;SDS011;26075;43.320;21.920;2023-08-20T01:55:38;8.00;;;6.38;;
40367;SDS011;26075;43.320;21.920;2023-08-20T02:00:39;9.40;;;5.38;;
40367;SDS011;26075;43.320;21.920;2023-08-20T02:05:39;7.05;;;5.75;;
40367;SDS011;26075;43.320;21.920;2023-08-20T02:10:40;10.07;;;5.40;;
40367;SDS011;26075;43.320;21.920;2023-08-20T02:15:41;9.48;;;5.78;;
40367;SDS011;26075;43.320;21.920;2023-08-20T02:20:43;9.02;;;5.43;;
40367;SDS011;26075;43.320;21.920;2023-08-20T02:25:43;9.00;;;5.18;;
40367;SDS011;26075;43.320;21.920;2023-08-20T02:30:45;7.93;;;4.90;;
40367;SDS011;26075;43.320;21.920;2023-08-20T02:35:46;8.77;;;5.05;;
40367;SDS011;26075;43.320;21.920;2023-08-20T02:40:47;6.60;;;4.82;;
40367;SDS011;26075;43.320;21.920;2023-08-20T02:46:02;6.22;;;4.68;;
40367;SDS011;26075;43.320;21.920;2023-08-20T02:56:04;9.35;;;6.00;;
40367;SDS011;26075;43.320;21.920;2023-08-20T03:01:05;8.82;;;6.40;;
40367;SDS011;26075;43.320;21.920;2023-08-20T03:11:18;8.40;;;6.53;;
40367;SDS011;26075;43.320;21.920;2023-08-20T03:21:39;8.02;;;5.95;;
40367;SDS011;26075;43.320;21.920;2023-08-20T03:32:04;7.75;;;5.72;;
40367;SDS011;26075;43.320;21.920;2023-08-20T03:37:05;9.25;;;5.40;;
40367;SDS011;26075;43.320;21.920;2023-08-20T03:42:06;8.18;;;5.72;;
40367;SDS011;26075;43.320;21.920;2023-08-20T03:47:08;11.63;;;6.63;;
40367;SDS011;26075;43.320;21.920;2023-08-20T03:52:09;6.05;;;4.80;;
40367;SDS011;26075;43.320;21.920;2023-08-20T04:02:43;7.18;;;5.45;;
40367;SDS011;26075;43.320;21.920;2023-08-20T04:19:07;6.70;;;4.95;;
40367;SDS011;26075;43.320;21.920;2023-08-20T04:24:08;7.20;;;4.85;;
40367;SDS011;26075;43.320;21.920;2023-08-20T04:35:06;8.57;;;4.72;;
40367;SDS011;26075;43.320;21.920;2023-08-20T04:40:07;6.90;;;4.80;;
40367;SDS011;26075;43.320;21.920;2023-08-20T04:45:08;7.53;;;4.72;;
40367;SDS011;26075;43.320;21.920;2023-08-20T04:55:39;7.63;;;4.93;;
40367;SDS011;26075;43.320;21.920;2023-08-20T05:00:39;8.18;;;4.95;;
40367;SDS011;26075;43.320;21.920;2023-08-20T05:05:40;8.32;;;4.90;;
40367;SDS011;26075;43.320;21.920;2023-08-20T05:10:41;5.45;;;4.30;;
40367;SDS011;26075;43.320;21.920;2023-08-20T05:15:42;7.25;;;4.88;;
40367;SDS011;26075;43.320;21.920;2023-08-20T05:20:43;8.73;;;5.50;;
40367;SDS011;26075;43.320;21.920;2023-08-20T05:25:43;9.02;;;5.43;;
40367;SDS011;26075;43.320;21.920;2023-08-20T05:30:52;7.50;;;5.22;;
40367;SDS011;26075;43.320;21.920;2023-08-20T05:41:53;8.90;;;5.63;;
40367;SDS011;26075;43.320;21.920;2023-08-20T05:46:54;10.68;;;5.55;;
40367;SDS011;26075;43.320;21.920;2023-08-20T05:51:55;9.25;;;5.60;;
40367;SDS011;26075;43.320;21.920;2023-08-20T05:56:57;8.45;;;5.50;;
40367;SDS011;26075;43.320;21.920;2023-08-20T06:08:08;9.25;;;5.60;;
40367;SDS011;26075;43.320;21.920;2023-08-20T06:13:09;9.07;;;6.53;;
40367;SDS011;26075;43.320;21.920;2023-08-20T06:23:45;9.00;;;5.72;;
40367;SDS011;26075;43.320;21.920;2023-08-20T06:33:50;9.03;;;5.97;;
40367;SDS011;26075;43.320;21.920;2023-08-20T06:44:04;9.65;;;6.13;;
40367;SDS011;26075;43.320;21.920;2023-08-20T06:49:05;10.80;;;6.35;;
40367;SDS011;26075;43.320;21.920;2023-08-20T06:54:07;11.68;;;6.53;;
40367;SDS011;26075;43.320;21.920;2023-08-20T07:05:05;8.77;;;6.18;;
40367;SDS011;26075;43.320;21.920;2023-08-20T07:10:09;10.40;;;6.32;;
40367;SDS011;26075;43.320;21.920;2023-08-20T07:15:12;8.77;;;6.95;;
40367;SDS011;26075;43.320;21.920;2023-08-20T07:26:08;11.30;;;6.40;;
40367;SDS011;26075;43.320;21.920;2023-08-20T07:31:10;16.55;;;6.38;;
40367;SDS011;26075;43.320;21.920;2023-08-20T07:36:11;11.10;;;6.85;;
40367;SDS011;26075;43.320;21.920;2023-08-20T07:41:11;13.38;;;6.93;;
40367;SDS011;26075;43.320;21.920;2023-08-20T07:46:13;9.45;;;6.20;;
40367;SDS011;26075;43.320;21.920;2023-08-20T07:51:13;15.25;;;7.75;;
40367;SDS011;26075;43.320;21.920;2023-08-20T07:56:14;13.90;;;7.93;;
40367;SDS011;26075;43.320;21.920;2023-08-20T08:01:15;12.70;;;6.40;;
40367;SDS011;26075;43.320;21.920;2023-08-20T08:06:16;12.10;;;7.20;;
40367;SDS011;26075;43.320;21.920;2023-08-20T08:11:18;11.07;;;6.95;;
40367;SDS011;26075;43.320;21.920;2023-08-20T08:16:18;8.80;;;6.32;;
40367;SDS011;26075;43.320;21.920;2023-08-20T08:21:19;15.82;;;7.35;;
40367;SDS011;26075;43.320;21.920;2023-08-20T08:32:05;11.70;;;6.70;;
40367;SDS011;26075;43.320;21.920;2023-08-20T08:42:40;10.93;;;5.78;;
40367;SDS011;26075;43.320;21.920;2023-08-20T08:47:44;12.98;;;7.13;;
40367;SDS011;26075;43.320;21.920;2023-08-20T08:52:45;11.77;;;6.82;;
40367;SDS011;26075;43.320;21.920;2023-08-20T09:03:44;13.90;;;6.65;;
40367;SDS011;26075;43.320;21.920;2023-08-20T09:08:45;10.48;;;6.22;;
40367;SDS011;26075;43.320;21.920;2023-08-20T09:13:45;9.95;;;6.30;;
40367;SDS011;26075;43.320;21.920;2023-08-20T09:18:46;8.77;;;7.00;;
40367;SDS011;26075;43.320;21.920;2023-08-20T09:23:47;12.70;;;6.68;;
40367;SDS011;26075;43.320;21.920;2023-08-20T09:28:48;12.07;;;6.40;;
40367;SDS011;26075;43.320;21.920;2023-08-20T09:33:52;8.75;;;6.80;;
40367;SDS011;26075;43.320;21.920;2023-08-20T09:44:51;14.25;;;6.63;;
40367;SDS011;26075;43.320;21.920;2023-08-20T09:50:10;10.85;;;6.32;;
40367;SDS011;26075;43.320;21.920;2023-08-20T09:55:16;11.27;;;5.95;;
40367;SDS011;26075;43.320;21.920;2023-08-20T10:00:17;12.45;;;6.35;;
40367;SDS011;26075;43.320;21.920;2023-08-20T10:10:52;11.88;;;6.22;;
40367;SDS011;26075;43.320;21.920;2023-08-20T10:15:54;12.30;;;6.70;;
40367;SDS011;26075;43.320;21.920;2023-08-20T10:20:57;8.45;;;5.78;;
40367;SDS011;26075;43.320;21.920;2023-08-20T10:26:09;8.10;;;5.85;;
40367;SDS011;26075;43.320;21.920;2023-08-20T10:31:11;10.35;;;6.20;;
40367;SDS011;26075;43.320;21.920;2023-08-20T10:36:16;9.32;;;6.05;;
40367;SDS011;26075;43.320;21.920;2023-08-20T10:41:28;11.77;;;7.65;;
40367;SDS011;26075;43.320;21.920;2023-08-20T10:52:06;8.85;;;5.95;;
40367;SDS011;26075;43.320;21.920;2023-08-20T10:57:07;7.03;;;5.35;;
40367;SDS011;26075;43.320;21.920;2023-08-20T11:02:10;11.32;;;6.90;;
40367;SDS011;26075;43.320;21.920;2023-08-20T11:07:17;10.77;;;5.75;;
40367;SDS011;26075;43.320;21.920;2023-08-20T11:12:19;13.98;;;5.43;;
40367;SDS011;26075;43.320;21.920;2023-08-20T11:17:21;10.05;;;5.70;;
40367;SDS011;26075;43.320;21.920;2023-08-20T11:22:22;7.03;;;5.68;;
40367;SDS011;26075;43.320;21.920;2023-08-20T11:27:26;12.02;;;5.60;;
40367;SDS011;26075;43.320;21.920;2023-08-20T11:32:27;6.75;;;5.22;;
40367;SDS011;26075;43.320;21.920;2023-08-20T11:37:30;9.40;;;4.95;;
40367;SDS011;26075;43.320;21.920;2023-08-20T11:42:30;10.10;;;6.20;;
40367;SDS011;26075;43.320;21.920;2023-08-20T11:47:38;11.95;;;5.05;;
40367;SDS011;26075;43.320;21.920;2023-08-20T11:52:42;10.82;;;5.65;;
40367;SDS011;26075;43.320;21.920;2023-08-20T11:57:43;10.52;;;6.63;;
40367;SDS011;26075;43.320;21.920;2023-08-20T12:02:52;10.20;;;5.85;;
40367;SDS011;26075;43.320;21.920;2023-08-20T12:07:57;8.15;;;5.25;;
40367;SDS011;26075;43.320;21.920;2023-08-20T12:12:59;13.88;;;5.55;;
40367;SDS011;26075;43.320;21.920;2023-08-20T12:18:02;7.53;;;5.15;;
40367;SDS011;26075;43.320;21.920;2023-08-20T12:23:05;7.50;;;4.85;;
40367;SDS011;26075;43.320;21.920;2023-08-20T12:28:08;9.90;;;5.63;;
40367;SDS011;26075;43.320;21.920;2023-08-20T12:33:09;18.05;;;5.53;;
40367;SDS011;26075;43.320;21.920;2023-08-20T12:43:41;11.88;;;4.95;;
40367;SDS011;26075;43.320;21.920;2023-08-20T12:54:39;10.50;;;5.10;;
40367;SDS011;26075;43.320;21.920;2023-08-20T12:59:40;12.07;;;5.75;;
40367;SDS011;26075;43.320;21.920;2023-08-20T13:04:41;8.25;;;4.90;;
40367;SDS011;26075;43.320;21.920;2023-08-20T13:09:42;6.40;;;4.43;;
40367;SDS011;26075;43.320;21.920;2023-08-20T13:14:52;8.50;;;4.68;;
40367;SDS011;26075;43.320;21.920;2023-08-20T13:19:53;7.45;;;4.55;;
40367;SDS011;26075;43.320;21.920;2023-08-20T13:24:54;10.45;;;5.10;;
40367;SDS011;26075;43.320;21.920;2023-08-20T13:29:55;7.97;;;4.85;;
40367;SDS011;26075;43.320;21.920;2023-08-20T13:34:57;8.50;;;5.60;;
40367;SDS011;26075;43.320;21.920;2023-08-20T13:45:48;11.20;;;5.93;;
40367;SDS011;26075;43.320;21.920;2023-08-20T13:50:49;6.07;;;3.83;;
40367;SDS011;26075;43.320;21.920;2023-08-20T13:55:50;6.78;;;4.55;;
40367;SDS011;26075;43.320;21.920;2023-08-20T14:00:51;5.50;;;4.35;;
40367;SDS011;26075;43.320;21.920;2023-08-20T14:05:52;8.18;;;4.68;;
40367;SDS011;26075;43.320;21.920;2023-08-20T14:10:53;8.60;;;4.65;;
40367;SDS011;26075;43.320;21.920;2023-08-20T14:15:54;10.15;;;4.88;;
40367;SDS011;26075;43.320;21.920;2023-08-20T14:20:55;15.30;;;4.40;;
40367;SDS011;26075;43.320;21.920;2023-08-20T14:25:55;7.82;;;5.30;;
40367;SDS011;26075;43.320;21.920;2023-08-20T14:30:56;12.60;;;6.43;;
40367;SDS011;26075;43.320;21.920;2023-08-20T14:35:57;8.13;;;5.35;;
40367;SDS011;26075;43.320;21.920;2023-08-20T14:41:01;7.70;;;4.97;;
40367;SDS011;26075;43.320;21.920;2023-08-20T14:46:03;9.77;;;5.93;;
40367;SDS011;26075;43.320;21.920;2023-08-20T14:51:03;11.05;;;6.50;;
40367;SDS011;26075;43.320;21.920;2023-08-20T14:56:05;13.38;;;5.93;;
40367;SDS011;26075;43.320;21.920;2023-08-20T15:01:05;8.93;;;4.60;;
40367;SDS011;26075;43.320;21.920;2023-08-20T15:06:08;10.70;;;4.95;;
40367;SDS011;26075;43.320;21.920;2023-08-20T15:11:08;10.63;;;5.07;;
40367;SDS011;26075;43.320;21.920;2023-08-20T15:16:09;8.73;;;4.88;;
40367;SDS011;26075;43.320;21.920;2023-08-20T15:21:10;9.68;;;5.28;;
40367;SDS011;26075;43.320;21.920;2023-08-20T15:26:11;11.15;;;5.03;;
40367;SDS011;26075;43.320;21.920;2023-08-20T15:31:12;12.38;;;5.57;;
40367;SDS011;26075;43.320;21.920;2023-08-20T15:36:13;8.15;;;5.90;;
40367;SDS011;26075;43.320;21.920;2023-08-20T15:41:14;8.07;;;4.72;;
40367;SDS011;26075;43.320;21.920;2023-08-20T15:46:15;9.77;;;5.20;;
40367;SDS011;26075;43.320;21.920;2023-08-20T15:51:15;10.55;;;5.00;;
40367;SDS011;26075;43.320;21.920;2023-08-20T15:56:16;12.27;;;5.22;;
40367;SDS011;26075;43.320;21.920;2023-08-20T16:01:17;10.13;;;4.82;;
40367;SDS011;26075;43.320;21.920;2023-08-20T16:12:07;12.98;;;5.65;;
40367;SDS011;26075;43.320;21.920;2023-08-20T16:17:19;10.00;;;5.00;;
40367;SDS011;26075;43.320;21.920;2023-08-20T16:22:20;11.30;;;4.75;;
40367;SDS011;26075;43.320;21.920;2023-08-20T16:33:08;7.93;;;5.17;;
40367;SDS011;26075;43.320;21.920;2023-08-20T16:44:07;7.88;;;4.85;;
40367;SDS011;26075;43.320;21.920;2023-08-20T16:49:07;7.75;;;5.38;;
40367;SDS011;26075;43.320;21.920;2023-08-20T16:54:08;8.73;;;6.05;;
40367;SDS011;26075;43.320;21.920;2023-08-20T16:59:09;8.13;;;5.18;;
40367;SDS011;26075;43.320;21.920;2023-08-20T17:09:48;10.32;;;5.63;;
40367;SDS011;26075;43.320;21.920;2023-08-20T17:20:44;11.63;;;5.53;;
40367;SDS011;26075;43.320;21.920;2023-08-20T17:25:45;8.75;;;5.60;;
40367;SDS011;26075;43.320;21.920;2023-08-20T17:30:45;9.95;;;5.55;;
40367;SDS011;26075;43.320;21.920;2023-08-20T17:41:45;14.00;;;6.45;;
40367;SDS011;26075;43.320;21.920;2023-08-20T17:46:46;10.35;;;5.90;;
40367;SDS011;26075;43.320;21.920;2023-08-20T17:57:15;9.48;;;7.00;;
40367;SDS011;26075;43.320;21.920;2023-08-20T18:02:16;10.10;;;6.75;;
40367;SDS011;26075;43.320;21.920;2023-08-20T18:07:17;11.25;;;7.35;;
40367;SDS011;26075;43.320;21.920;2023-08-20T18:12:18;12.65;;;7.18;;
40367;SDS011;26075;43.320;21.920;2023-08-20T18:17:19;18.15;;;8.35;;
40367;SDS011;26075;43.320;21.920;2023-08-20T18:28:24;18.10;;;9.88;;
40367;SDS011;26075;43.320;21.920;2023-08-20T18:33:25;12.07;;;7.72;;
40367;SDS011;26075;43.320;21.920;2023-08-20T18:43:30;11.70;;;7.35;;
40367;SDS011;26075;43.320;21.920;2023-08-20T18:48:33;9.60;;;7.13;;
40367;SDS011;26075;43.320;21.920;2023-08-20T18:59:31;11.32;;;7.85;;
40367;SDS011;26075;43.320;21.920;2023-08-20T19:04:32;8.63;;;7.43;;
40367;SDS011;26075;43.320;21.920;2023-08-20T19:09:33;13.63;;;7.32;;
40367;SDS011;26075;43.320;21.920;2023-08-20T19:14:34;10.95;;;7.00;;
40367;SDS011;26075;43.320;21.920;2023-08-20T19:25:32;13.18;;;7.88;;
40367;SDS011;26075;43.320;21.920;2023-08-20T19:36:12;10.80;;;7.10;;
40367;SDS011;26075;43.320;21.920;2023-08-20T19:41:13;9.35;;;7.25;;
40367;SDS011;26075;43.320;21.920;2023-08-20T19:46:17;11.40;;;7.70;;
40367;SDS011;26075;43.320;21.920;2023-08-20T19:51:18;10.65;;;7.32;;
40367;SDS011;26075;43.320;21.920;2023-08-20T20:01:45;11.38;;;7.10;;
40367;SDS011;26075;43.320;21.920;2023-08-20T20:07:04;10.32;;;7.32;;
40367;SDS011;26075;43.320;21.920;2023-08-20T20:12:04;10.07;;;6.88;;
40367;SDS011;26075;43.320;21.920;2023-08-20T20:22:57;13.35;;;6.65;;
40367;SDS011;26075;43.320;21.920;2023-08-20T20:27:57;9.23;;;6.82;;
40367;SDS011;26075;43.320;21.920;2023-08-20T20:32:58;8.50;;;6.90;;
40367;SDS011;26075;43.320;21.920;2023-08-20T20:37:59;9.48;;;6.70;;
40367;SDS011;26075;43.320;21.920;2023-08-20T20:43:00;9.45;;;5.45;;
40367;SDS011;26075;43.320;21.920;2023-08-20T20:48:01;9.57;;;6.20;;
40367;SDS011;26075;43.320;21.920;2023-08-20T20:53:01;7.63;;;6.15;;
40367;SDS011;26075;43.320;21.920;2023-08-20T20:58:03;8.88;;;6.13;;
40367;SDS011;26075;43.320;21.920;2023-08-20T21:03:07;11.10;;;7.22;;
40367;SDS011;26075;43.320;21.920;2023-08-20T21:08:09;15.23;;;6.45;;
40367;SDS011;26075;43.320;21.920;2023-08-20T21:13:09;8.68;;;6.47;;
40367;SDS011;26075;43.320;21.920;2023-08-20T21:18:12;9.77;;;6.95;;
40367;SDS011;26075;43.320;21.920;2023-08-20T21:23:13;9.35;;;6.85;;
40367;SDS011;26075;43.320;21.920;2023-08-20T21:28:14;9.45;;;6.93;;
40367;SDS011;26075;43.320;21.920;2023-08-20T21:33:15;9.85;;;7.40;;
40367;SDS011;26075;43.320;21.920;2023-08-20T21:38:16;11.70;;;6.93;;
40367;SDS011;26075;43.320;21.920;2023-08-20T21:49:06;9.27;;;6.20;;
40367;SDS011;26075;43.320;21.920;2023-08-20T21:54:06;9.07;;;6.90;;
40367;SDS011;26075;43.320;21.920;2023-08-20T22:05:15;9.18;;;7.38;;
40367;SDS011;26075;43.320;21.920;2023-08-20T22:10:17;13.82;;;7.60;;
40367;SDS011;26075;43.320;21.920;2023-08-20T22:15:19;13.68;;;7.75;;
40367;SDS011;26075;43.320;21.920;2023-08-20T22:26:16;8.77;;;7.75;;
40367;SDS011;26075;43.320;21.920;2023-08-20T22:31:35;9.15;;;6.95;;
40367;SDS011;26075;43.320;21.920;2023-08-20T22:59:33;10.52;;;7.88;;
40367;SDS011;26075;43.320;21.920;2023-08-20T23:04:34;8.50;;;6.70;;
40367;SDS011;26075;43.320;21.920;2023-08-20T23:09:35;12.57;;;7.07;;
40367;SDS011;26075;43.320;21.920;2023-08-20T23:14:36;14.43;;;6.95;;
40367;SDS011;26075;43.320;21.920;2023-08-20T23:19:37;8.88;;;6.53;;
40367;SDS011;26075;43.320;21.920;2023-08-20T23:24:37;10.80;;;6.88;;
40367;SDS011;26075;43.320;21.920;2023-08-20T23:35:06;9.35;;;6.95;;
40367;SDS011;26075;43.320;21.920;2023-08-20T23:40:09;8.75;;;6.97;;
40367;SDS011;26075;43.320;21.920;2023-08-20T23:45:10;14.57;;;6.95;;
40367;SDS011;26075;43.320;21.920;2023-08-20T23:50:11;9.40;;;6.80;;
40367;SDS011;26075;43.320;21.920;2023-08-20T23:55:12;10.45;;;7.18;;
